createdAt,value
2023-11-17T00:00:02.575Z,0
2023-11-17T00:05:03.351Z,0
2023-11-17T00:10:03.304Z,0
2023-11-17T00:15:03.116Z,0
2023-11-17T00:20:03.021Z,0
2023-11-17T00:25:02.748Z,0
2023-11-17T00:30:03.307Z,0
2023-11-17T00:35:03.581Z,0
2023-11-17T00:40:03.241Z,0
2023-11-17T00:45:02.945Z,0
2023-11-17T00:50:02.795Z,0
2023-11-17T00:55:02.863Z,0
2023-11-17T01:00:03.125Z,0
2023-11-17T01:05:02.815Z,0
2023-11-17T01:10:02.882Z,0
2023-11-17T01:15:02.658Z,0
2023-11-17T01:20:02.677Z,0
2023-11-17T01:25:03.438Z,0
2023-11-17T01:30:03.056Z,0
2023-11-17T01:35:02.905Z,0
2023-11-17T01:40:02.584Z,0
2023-11-17T01:45:03.359Z,0
2023-11-17T01:50:03.275Z,0
2023-11-17T01:55:03.520Z,0
2023-11-17T02:00:02.857Z,0
2023-11-17T02:05:02.575Z,0
2023-11-17T02:10:03.433Z,0
2023-11-17T02:15:03.507Z,0
2023-11-17T02:20:03.089Z,0
2023-11-17T02:25:04.027Z,0
2023-11-17T02:30:02.984Z,0
2023-11-17T02:35:02.751Z,0
2023-11-17T02:40:03.391Z,0
2023-11-17T02:45:03.089Z,0
2023-11-17T02:50:02.764Z,0
2023-11-17T02:55:03.473Z,0
2023-11-17T03:00:03.072Z,0
2023-11-17T03:05:02.726Z,0
2023-11-17T03:10:02.420Z,0
2023-11-17T03:15:03.174Z,0
2023-11-17T03:20:02.812Z,0
2023-11-17T03:25:02.520Z,0
2023-11-17T03:30:03.352Z,0
2023-11-17T03:35:03.072Z,0
2023-11-17T03:40:02.852Z,0
2023-11-17T03:45:02.766Z,0
2023-11-17T03:50:02.436Z,0
2023-11-17T03:55:04.407Z,0
2023-11-17T04:00:03.243Z,0
2023-11-17T04:05:03.005Z,0
2023-11-17T04:10:03.013Z,0
2023-11-17T04:15:08.412Z,0
2023-11-17T04:20:03.317Z,0
2023-11-17T04:25:02.987Z,0
2023-11-17T04:30:02.791Z,0
2023-11-17T04:35:02.473Z,0
2023-11-17T04:40:03.710Z,0
2023-11-17T04:45:02.937Z,0
2023-11-17T04:50:02.582Z,0
2023-11-17T04:55:04.051Z,0
2023-11-17T05:00:03.059Z,0
2023-11-17T05:05:02.870Z,0
2023-11-17T05:10:03.566Z,0
2023-11-17T05:15:02.998Z,0
2023-11-17T05:20:02.737Z,0
2023-11-17T05:25:02.593Z,0
2023-11-17T05:30:03.205Z,0
2023-11-17T05:35:02.789Z,0
2023-11-17T05:40:02.588Z,0
2023-11-17T05:45:03.698Z,0
2023-11-17T05:50:03.404Z,0
2023-11-17T05:55:04.226Z,0
2023-11-17T06:00:02.550Z,0.23
2023-11-17T06:05:02.899Z,0.91
2023-11-17T06:10:02.566Z,2.38
2023-11-17T06:15:03.169Z,5.66
2023-11-17T06:20:03.018Z,12.34
2023-11-17T06:25:03.321Z,8.33
2023-11-17T06:30:02.848Z,16.67
2023-11-17T06:35:02.546Z,28.33
2023-11-17T06:40:03.395Z,50
2023-11-17T06:45:03.280Z,75
2023-11-17T06:50:03.128Z,143.33
2023-11-17T06:55:08.380Z,240
2023-11-17T07:00:03.349Z,420
2023-11-17T07:05:02.783Z,521.67
2023-11-17T07:10:02.641Z,475
2023-11-17T07:15:02.465Z,486.67
2023-11-17T07:20:03.115Z,675
2023-11-17T07:25:02.951Z,880
2023-11-17T07:30:03.072Z,1010
2023-11-17T07:35:03.332Z,905
2023-11-17T07:40:03.303Z,941.67
2023-11-17T07:45:02.972Z,1248.33
2023-11-17T07:50:02.705Z,1331.67
2023-11-17T07:55:03.300Z,1240
2023-11-17T08:00:03.081Z,1365
2023-11-17T08:05:03.151Z,1440
2023-11-17T08:10:02.828Z,2038.33
2023-11-17T08:15:02.450Z,2871.67
2023-11-17T08:20:03.267Z,1840
2023-11-17T08:25:02.961Z,1575
2023-11-17T08:30:02.722Z,1815
2023-11-17T08:35:02.463Z,1653.33
2023-11-17T08:40:02.670Z,2091.67
2023-11-17T08:45:03.329Z,2250
2023-11-17T08:50:03.620Z,1690
2023-11-17T08:55:03.494Z,1498.33
2023-11-17T09:00:03.279Z,1545
2023-11-17T09:05:02.967Z,1651.67
2023-11-17T09:10:02.864Z,2010
2023-11-17T09:15:02.513Z,2655
2023-11-17T09:20:03.562Z,2173.33
2023-11-17T09:25:02.945Z,2738.33
2023-11-17T09:30:02.668Z,2688.33
2023-11-17T09:35:02.550Z,2666.67
2023-11-17T09:40:03.403Z,2825
2023-11-17T09:45:03.183Z,2985
2023-11-17T09:50:02.792Z,2701.67
2023-11-17T09:55:03.638Z,2705
2023-11-17T10:00:03.259Z,2986.67
2023-11-17T10:05:02.889Z,2841.67
2023-11-17T10:10:02.832Z,2545
2023-11-17T10:15:03.273Z,3090
2023-11-17T10:20:02.999Z,3845
2023-11-17T10:25:02.935Z,3916.67
2023-11-17T10:30:02.905Z,3911.67
2023-11-17T10:35:02.572Z,3263.33
2023-11-17T10:40:13.038Z,3728.33
2023-11-17T10:45:06.496Z,3501.67
2023-11-17T10:50:02.552Z,4716.67
2023-11-17T10:55:04.408Z,4856.67
2023-11-17T11:00:03.062Z,5091.67
2023-11-17T11:05:02.950Z,3690
2023-11-17T11:10:02.722Z,3740
2023-11-17T11:15:02.832Z,2921.67
2023-11-17T11:20:23.261Z,2738.33
2023-11-17T11:25:03.393Z,2656.67
2023-11-17T11:30:02.964Z,2205
2023-11-17T11:35:02.641Z,2963.33
2023-11-17T11:40:02.974Z,3270
2023-11-17T11:45:03.264Z,3113.33
2023-11-17T11:50:02.950Z,2765
2023-11-17T11:55:03.443Z,2461.67
2023-11-17T12:00:03.435Z,3508.33
2023-11-17T12:05:03.437Z,3380
2023-11-17T12:10:03.067Z,3408.33
2023-11-17T12:15:02.827Z,3368.33
2023-11-17T12:20:02.496Z,5206.67
2023-11-17T12:25:03.345Z,5898.33
2023-11-17T12:30:03.074Z,6310
2023-11-17T12:35:02.903Z,5593.33
2023-11-17T12:40:03.030Z,2988.33
2023-11-17T12:45:03.459Z,2485
2023-11-17T12:50:03.029Z,3573.33
2023-11-17T12:55:03.545Z,5548.33
2023-11-17T13:00:02.536Z,3915
2023-11-17T13:05:03.537Z,3220
2023-11-17T13:10:03.066Z,5871.67
2023-11-17T13:15:02.878Z,3283.33
2023-11-17T13:20:02.712Z,2086.67
2023-11-17T13:25:02.428Z,2960
2023-11-17T13:30:03.192Z,3445
2023-11-17T13:35:02.786Z,3935
2023-11-17T13:40:02.493Z,2976.67
2023-11-17T13:45:03.465Z,1471.67
2023-11-17T13:50:02.980Z,893.33
2023-11-17T13:55:03.382Z,1005
2023-11-17T14:00:03.590Z,1481.67
2023-11-17T14:05:03.116Z,1160
2023-11-17T14:10:02.919Z,1345
2023-11-17T14:15:02.737Z,1368.33
2023-11-17T14:20:02.454Z,1188.33
2023-11-17T14:25:03.175Z,840
2023-11-17T14:30:02.918Z,733.33
2023-11-17T14:35:02.713Z,626.67
2023-11-17T14:40:02.573Z,503.33
2023-11-17T14:45:03.420Z,386.67
2023-11-17T14:50:02.971Z,241.67
2023-11-17T14:55:03.223Z,215
2023-11-17T15:00:03.381Z,210
2023-11-17T15:05:02.973Z,165
2023-11-17T15:10:02.715Z,151.67
2023-11-17T15:15:02.559Z,138.33
2023-11-17T15:20:03.228Z,95
2023-11-17T15:25:02.974Z,56.67
2023-11-17T15:30:02.733Z,35
2023-11-17T15:35:02.492Z,18.33
2023-11-17T15:40:03.197Z,8.33
2023-11-17T15:45:03.124Z,9.51
2023-11-17T15:50:02.770Z,3.85
2023-11-17T15:55:04.067Z,1.47
2023-11-17T16:00:02.984Z,0.45
2023-11-17T16:05:02.708Z,0.11
2023-11-17T16:10:03.435Z,0
2023-11-17T16:15:03.083Z,0
2023-11-17T16:20:03.211Z,0
2023-11-17T16:25:02.716Z,0
2023-11-17T16:30:02.469Z,0
2023-11-17T16:35:03.025Z,0
2023-11-17T16:40:02.795Z,0
2023-11-17T16:45:02.590Z,0
2023-11-17T16:50:03.240Z,0
2023-11-17T16:55:03.509Z,0
2023-11-17T17:00:02.892Z,0
2023-11-17T17:05:02.734Z,0
2023-11-17T17:10:03.370Z,0
2023-11-17T17:15:03.052Z,0
2023-11-17T17:20:03.047Z,0
2023-11-17T17:25:02.794Z,0
2023-11-17T17:30:02.651Z,0
2023-11-17T17:35:03.219Z,0
2023-11-17T17:40:02.985Z,0
2023-11-17T17:45:02.808Z,0
2023-11-17T17:50:02.439Z,0
2023-11-17T17:55:03.594Z,0
2023-11-17T18:00:03.014Z,0
2023-11-17T18:05:02.811Z,0
2023-11-17T18:10:02.449Z,0
2023-11-17T18:15:03.274Z,0
2023-11-17T18:20:03.076Z,0
2023-11-17T18:25:02.819Z,0
2023-11-17T18:30:02.537Z,0
2023-11-17T18:35:03.241Z,0
2023-11-17T18:40:03.066Z,0
2023-11-17T18:45:03.069Z,0
2023-11-17T18:50:02.763Z,0
2023-11-17T18:55:03.637Z,0
2023-11-17T19:00:03.265Z,0
2023-11-17T19:05:03.382Z,0
2023-11-17T19:10:03.060Z,0
2023-11-17T19:15:03.196Z,0
2023-11-17T19:20:03.159Z,0
2023-11-17T19:25:02.945Z,0
2023-11-17T19:30:02.769Z,0
2023-11-17T19:35:02.594Z,0
2023-11-17T19:40:02.557Z,0
2023-11-17T19:45:03.262Z,0
2023-11-17T19:50:07.698Z,0
2023-11-17T19:55:03.592Z,0
2023-11-17T20:00:02.492Z,0
2023-11-17T20:05:03.237Z,0
2023-11-17T20:10:02.947Z,0
2023-11-17T20:15:02.722Z,0
2023-11-17T20:20:02.711Z,0
2023-11-17T20:25:02.405Z,0
2023-11-17T20:30:03.115Z,0
2023-11-17T20:35:02.814Z,0
2023-11-17T20:40:02.572Z,0
2023-11-17T20:45:03.211Z,0
2023-11-17T20:50:02.864Z,0
2023-11-17T20:55:03.788Z,0
2023-11-17T21:00:02.610Z,0
2023-11-17T21:05:03.499Z,0
2023-11-17T21:10:03.045Z,0
2023-11-17T21:15:02.762Z,0
2023-11-17T21:20:02.470Z,0
2023-11-17T21:25:03.119Z,0
2023-11-17T21:30:02.905Z,0
2023-11-17T21:35:07.473Z,0
2023-11-17T21:40:02.882Z,0
2023-11-17T21:45:02.685Z,0
2023-11-17T21:50:03.331Z,0
2023-11-17T21:55:04.308Z,0
2023-11-17T22:00:02.925Z,0
2023-11-17T22:05:02.571Z,0
2023-11-17T22:10:03.133Z,0
2023-11-17T22:15:02.893Z,0
2023-11-17T22:20:02.603Z,0
2023-11-17T22:25:03.582Z,0
2023-11-17T22:30:03.057Z,0
2023-11-17T22:35:02.968Z,0
2023-11-17T22:40:02.664Z,0
2023-11-17T22:45:02.855Z,0
2023-11-17T22:50:02.560Z,0
2023-11-17T22:55:05.257Z,0
2023-11-17T23:00:03.410Z,0
2023-11-17T23:05:03.113Z,0
2023-11-17T23:10:02.991Z,0
2023-11-17T23:15:02.726Z,0
2023-11-17T23:20:07.077Z,0
2023-11-17T23:25:02.928Z,0
2023-11-17T23:30:02.477Z,0
2023-11-17T23:35:03.148Z,0
2023-11-17T23:40:02.583Z,0
2023-11-17T23:45:03.288Z,0
2023-11-17T23:50:03.035Z,0
2023-11-17T23:55:03.693Z,0
